Time;durP1;ratioP1;P1;durP2;ratioP2;P2;SDS_P1;SDS_P2;PMS_P1;PMS_P2;Temp;Humidity;BMP_temperature;BMP_pressure;BME280_temperature;BME280_humidity;BME280_pressure;Samples;Min_cycle;Max_cycle;Signal;HPM_P1;HPM_P2
2022/01/09 00:00:21;;;;;;;29.60;15.10;;;5.40;88.10;;;;;;1872753;76;21092;-44
2022/01/09 00:02:50;;;;;;;33.40;15.53;;;5.40;88.30;;;;;;1872794;77;21063;-44
2022/01/09 00:05:20;;;;;;;27.37;15.93;;;5.40;88.30;;;;;;1872936;75;21436;-44
2022/01/09 00:07:49;;;;;;;33.38;17.07;;;5.40;88.30;;;;;;1872948;77;21335;-44
2022/01/09 00:10:19;;;;;;;28.98;14.83;;;5.40;88.60;;;;;;1872768;77;21038;-44
2022/01/09 00:12:48;;;;;;;30.17;15.65;;;5.30;88.50;;;;;;1872762;75;21033;-44
2022/01/09 00:15:17;;;;;;;30.10;14.73;;;5.40;88.50;;;;;;1872757;77;21142;-44
2022/01/09 00:17:47;;;;;;;34.58;16.55;;;5.30;88.60;;;;;;1872795;76;21098;-43
2022/01/09 00:20:16;;;;;;;29.57;14.73;;;5.40;88.60;;;;;;1872820;75;21163;-44
2022/01/09 00:22:48;;;;;;;29.00;15.23;;;5.30;88.60;;;;;;1872865;77;21034;-44
2022/01/09 00:25:18;;;;;;;31.93;16.65;;;5.30;88.40;;;;;;1872828;76;21025;-44
2022/01/09 00:27:48;;;;;;;29.82;15.18;;;5.30;88.50;;;;;;1872912;77;21057;-44
2022/01/09 00:30:19;;;;;;;31.75;15.25;;;5.40;88.80;;;;;;1872826;76;21139;-44
2022/01/09 00:32:48;;;;;;;26.55;14.07;;;5.40;88.70;;;;;;1872795;77;21009;-45
2022/01/09 00:35:18;;;;;;;30.40;15.00;;;5.40;88.60;;;;;;1872729;77;21058;-43
2022/01/09 00:37:47;;;;;;;28.05;14.53;;;5.40;88.60;;;;;;1872724;77;21061;-44
2022/01/09 00:40:18;;;;;;;26.15;13.88;;;5.40;88.50;;;;;;1872743;77;21103;-44
2022/01/09 00:42:47;;;;;;;29.87;14.98;;;5.40;88.70;;;;;;1872822;75;21033;-44
2022/01/09 00:45:17;;;;;;;34.13;16.50;;;5.50;88.80;;;;;;1872856;77;21026;-44
2022/01/09 00:47:47;;;;;;;30.32;15.65;;;5.50;88.70;;;;;;1872856;76;21010;-44
2022/01/09 00:50:16;;;;;;;33.35;15.50;;;5.50;88.60;;;;;;1872655;75;21034;-44
2022/01/09 00:52:45;;;;;;;27.93;14.43;;;5.60;88.60;;;;;;1872756;76;21029;-44
2022/01/09 00:55:14;;;;;;;28.47;15.63;;;5.50;88.60;;;;;;1872761;76;21452;-43
2022/01/09 00:57:43;;;;;;;29.42;15.15;;;5.50;88.40;;;;;;1872770;77;21464;-44
2022/01/09 01:00:14;;;;;;;32.35;16.25;;;5.50;88.30;;;;;;1872731;75;21515;-44
2022/01/09 01:02:44;;;;;;;35.35;15.83;;;5.40;88.30;;;;;;1872763;76;21025;-43
2022/01/09 01:05:13;;;;;;;36.38;16.80;;;5.40;88.40;;;;;;1872975;77;21030;-44
2022/01/09 01:07:43;;;;;;;23.50;13.65;;;5.50;88.40;;;;;;1873001;76;21095;-44
2022/01/09 01:10:13;;;;;;;32.93;15.40;;;5.40;88.40;;;;;;1872974;75;21041;-43
2022/01/09 01:12:42;;;;;;;30.52;14.83;;;5.40;88.40;;;;;;1872903;75;21103;-43
2022/01/09 01:15:12;;;;;;;29.72;16.00;;;5.40;88.70;;;;;;1872861;76;21103;-44
2022/01/09 01:17:41;;;;;;;33.02;15.53;;;5.30;88.70;;;;;;1872936;75;21022;-44
2022/01/09 01:20:11;;;;;;;30.48;15.03;;;5.40;89.10;;;;;;1872939;75;21053;-44
2022/01/09 01:22:42;;;;;;;29.00;15.28;;;5.50;89.00;;;;;;1872857;75;21049;-44
2022/01/09 01:25:11;;;;;;;33.92;14.93;;;5.50;88.60;;;;;;1872950;76;21093;-43
2022/01/09 01:27:41;;;;;;;29.72;14.73;;;5.50;88.70;;;;;;1872963;76;21073;-44
2022/01/09 01:30:11;;;;;;;26.17;14.68;;;5.50;88.90;;;;;;1872842;75;21140;-45
2022/01/09 01:32:41;;;;;;;32.75;15.03;;;5.50;88.90;;;;;;1872852;75;21105;-44
2022/01/09 01:35:11;;;;;;;25.48;14.90;;;5.50;88.80;;;;;;1872888;76;21069;-43
2022/01/09 01:37:42;;;;;;;26.42;13.10;;;5.50;89.00;;;;;;1872997;76;21084;-44
2022/01/09 01:40:14;;;;;;;29.20;14.18;;;5.60;88.90;;;;;;1872860;76;21049;-44
2022/01/09 01:42:44;;;;;;;28.05;14.38;;;5.70;89.00;;;;;;1872859;75;21092;-44
2022/01/09 01:45:14;;;;;;;31.93;16.52;;;5.70;88.80;;;;;;1872976;77;21534;-44
2022/01/09 01:47:43;;;;;;;29.60;14.73;;;5.70;88.90;;;;;;1872881;77;21104;-44
2022/01/09 01:50:14;;;;;;;32.03;15.75;;;5.70;88.80;;;;;;1872847;76;21084;-44
2022/01/09 01:52:48;;;;;;;29.82;15.65;;;5.70;88.70;;;;;;1872902;76;21002;-44
2022/01/09 01:55:16;;;;;;;34.45;15.85;;;5.70;88.40;;;;;;1872809;76;21496;-45
2022/01/09 01:57:45;;;;;;;31.02;13.62;;;5.60;88.40;;;;;;1872894;77;21030;-44
2022/01/09 02:00:17;;;;;;;27.98;14.05;;;5.60;88.80;;;;;;1872871;77;21037;-44
2022/01/09 02:02:47;;;;;;;26.17;14.00;;;5.60;88.80;;;;;;1872827;77;21037;-44
2022/01/09 02:05:16;;;;;;;29.90;15.30;;;5.70;89.10;;;;;;1872947;77;21061;-44
2022/01/09 02:07:46;;;;;;;26.07;14.07;;;5.70;89.00;;;;;;1872968;75;21013;-44
2022/01/09 02:10:16;;;;;;;29.70;14.03;;;5.70;88.80;;;;;;1872918;75;21005;-44
2022/01/09 02:12:45;;;;;;;30.95;15.18;;;5.70;88.80;;;;;;1872970;76;21045;-44
2022/01/09 02:15:38;;;;;;;28.80;14.43;;;5.70;89.00;;;;;;1872931;77;21033;-44
2022/01/09 02:18:10;;;;;;;25.90;13.32;;;5.60;88.60;;;;;;1873012;75;21037;-44
2022/01/09 02:20:40;;;;;;;26.57;13.60;;;5.60;88.70;;;;;;1872900;76;21033;-44
2022/01/09 02:23:11;;;;;;;31.30;14.55;;;5.50;88.80;;;;;;1872927;77;21112;-44
2022/01/09 02:25:41;;;;;;;24.52;13.15;;;5.50;88.80;;;;;;1872958;76;21191;-44
2022/01/09 02:28:12;;;;;;;27.13;13.13;;;5.40;89.10;;;;;;1872878;76;21142;-44
2022/01/09 02:30:41;;;;;;;27.87;13.25;;;5.50;89.40;;;;;;1872846;76;21037;-43
2022/01/09 02:33:13;;;;;;;27.30;14.00;;;5.50;89.00;;;;;;1873022;76;21089;-44
2022/01/09 02:35:42;;;;;;;26.55;14.15;;;5.40;88.90;;;;;;1872779;76;21112;-45
2022/01/09 02:38:11;;;;;;;30.12;15.13;;;5.40;89.10;;;;;;1872877;77;21146;-44
2022/01/09 02:40:40;;;;;;;29.60;14.40;;;5.40;89.10;;;;;;1872843;77;21165;-44
2022/01/09 02:43:09;;;;;;;28.83;13.48;;;5.30;89.40;;;;;;1872860;75;21457;-43
2022/01/09 02:45:39;;;;;;;27.25;14.43;;;5.40;89.50;;;;;;1872848;76;21537;-44
2022/01/09 02:48:09;;;;;;;28.50;15.20;;;5.40;89.30;;;;;;1872857;76;21037;-45
2022/01/09 02:50:43;;;;;;;25.95;13.08;;;5.40;89.80;;;;;;1872798;75;21010;-44
2022/01/09 02:53:15;;;;;;;29.55;13.93;;;5.40;89.30;;;;;;1872267;76;21119;-43
2022/01/09 02:55:44;;;;;;;31.83;14.47;;;5.40;89.40;;;;;;1873135;75;21049;-44
2022/01/09 02:58:14;;;;;;;26.68;12.13;;;5.40;89.40;;;;;;1872932;75;21433;-44
2022/01/09 03:00:45;;;;;;;29.00;12.60;;;5.40;89.30;;;;;;1872832;77;21006;-44
2022/01/09 03:03:14;;;;;;;29.10;14.20;;;5.50;89.40;;;;;;1872893;75;21096;-44
2022/01/09 03:05:44;;;;;;;26.05;13.48;;;5.50;89.40;;;;;;1872793;75;21030;-43
2022/01/09 03:08:13;;;;;;;33.02;14.03;;;5.60;89.40;;;;;;1873017;75;21061;-44
2022/01/09 03:10:43;;;;;;;27.58;12.78;;;5.60;89.20;;;;;;1872958;77;21034;-43
2022/01/09 03:13:12;;;;;;;24.25;13.40;;;5.50;89.00;;;;;;1872825;76;21005;-44
2022/01/09 03:15:41;;;;;;;31.62;13.65;;;5.40;88.70;;;;;;1872915;75;21089;-44
2022/01/09 03:18:12;;;;;;;22.87;12.78;;;5.40;89.00;;;;;;1872974;77;21127;-44
2022/01/09 03:20:41;;;;;;;23.27;12.78;;;5.30;89.10;;;;;;1873045;75;21091;-43
2022/01/09 03:23:11;;;;;;;21.97;12.13;;;5.30;89.50;;;;;;1872885;77;21100;-43
2022/01/09 03:25:40;;;;;;;25.40;12.10;;;5.30;89.40;;;;;;1872875;76;21091;-45
2022/01/09 03:28:10;;;;;;;25.62;12.88;;;5.30;89.40;;;;;;1872954;75;21111;-44
2022/01/09 03:30:39;;;;;;;28.70;13.13;;;5.20;89.20;;;;;;1872806;75;21090;-44
2022/01/09 03:33:09;;;;;;;28.07;12.88;;;5.10;89.30;;;;;;1872848;76;21009;-44
2022/01/09 03:35:39;;;;;;;25.60;13.03;;;5.10;89.30;;;;;;1872784;77;21029;-43
2022/01/09 03:38:08;;;;;;;24.85;12.58;;;5.00;89.50;;;;;;1872873;75;21033;-44
2022/01/09 03:40:37;;;;;;;28.80;12.07;;;5.00;89.50;;;;;;1872874;77;21050;-43
2022/01/09 03:43:06;;;;;;;29.57;14.35;;;4.90;89.80;;;;;;1872877;75;21096;-44
2022/01/09 03:45:36;;;;;;;28.60;13.88;;;4.90;89.90;;;;;;1872722;75;21077;-43
2022/01/09 03:48:06;;;;;;;27.48;12.82;;;4.90;90.00;;;;;;1872798;75;21100;-43
2022/01/09 03:50:36;;;;;;;29.15;13.40;;;4.90;90.00;;;;;;1872923;77;21049;-45
2022/01/09 03:53:06;;;;;;;34.10;13.60;;;5.00;90.10;;;;;;1872832;77;21095;-44
2022/01/09 03:55:36;;;;;;;33.78;14.05;;;5.00;90.10;;;;;;1872925;75;21506;-44
2022/01/09 03:58:06;;;;;;;42.95;14.38;;;5.10;90.00;;;;;;1872788;76;20998;-44
2022/01/09 04:00:36;;;;;;;35.90;16.70;;;5.10;89.90;;;;;;1872853;76;21091;-43
2022/01/09 04:03:05;;;;;;;50.98;16.15;;;5.10;89.90;;;;;;1872756;75;21099;-44
2022/01/09 04:05:34;;;;;;;35.38;14.58;;;5.00;89.90;;;;;;1872920;76;21022;-44
2022/01/09 04:08:04;;;;;;;30.92;14.85;;;5.10;90.00;;;;;;1872858;75;21033;-44
2022/01/09 04:10:40;;;;;;;29.92;13.22;;;5.10;90.00;;;;;;1872859;76;21107;-43
2022/01/09 04:13:04;;;;;;;30.52;14.58;;;5.10;89.90;;;;;;1871718;76;21030;-44
2022/01/09 04:15:34;;;;;;;28.95;14.63;;;5.10;89.80;;;;;;1872828;75;21124;-43
2022/01/09 04:18:04;;;;;;;39.98;15.75;;;5.10;89.80;;;;;;1872777;75;21050;-44
2022/01/09 04:20:34;;;;;;;36.50;14.23;;;5.00;89.70;;;;;;1872732;77;21037;-44
2022/01/09 04:23:03;;;;;;;49.38;15.72;;;5.00;90.00;;;;;;1872678;77;21045;-44
2022/01/09 04:25:33;;;;;;;51.58;18.12;;;5.10;90.20;;;;;;1872744;77;21137;-44
2022/01/09 04:28:02;;;;;;;35.60;14.87;;;5.10;90.00;;;;;;1872789;76;21029;-43
2022/01/09 04:30:31;;;;;;;39.27;16.57;;;5.10;90.00;;;;;;1872871;77;21190;-44
2022/01/09 04:33:00;;;;;;;31.52;14.70;;;5.20;90.00;;;;;;1872931;76;21441;-43
2022/01/09 04:35:29;;;;;;;35.90;15.50;;;5.20;90.00;;;;;;1872708;76;21099;-43
2022/01/09 04:37:59;;;;;;;39.15;16.30;;;5.20;90.00;;;;;;1872869;77;21154;-45
2022/01/09 04:40:28;;;;;;;42.70;16.10;;;5.20;90.20;;;;;;1872979;76;21025;-44
2022/01/09 04:43:00;;;;;;;37.55;16.35;;;5.20;90.00;;;;;;1872876;77;21034;-45
2022/01/09 04:45:29;;;;;;;67.00;17.25;;;5.30;90.10;;;;;;1881954;75;21122;-45
2022/01/09 04:48:02;;;;;;;37.45;16.75;;;5.30;90.10;;;;;;1891615;76;21032;-45
2022/01/09 04:50:32;;;;;;;34.03;14.35;;;5.40;90.00;;;;;;1891478;75;21032;-45
2022/01/09 04:53:05;;;;;;;34.27;16.50;;;5.40;90.00;;;;;;1891654;75;21087;-45
2022/01/09 04:55:35;;;;;;;33.88;16.00;;;5.30;90.00;;;;;;1891473;75;21090;-45
2022/01/09 04:58:05;;;;;;;36.50;15.50;;;5.30;89.90;;;;;;1891610;76;21024;-44
2022/01/09 05:00:34;;;;;;;42.70;18.98;;;5.30;89.90;;;;;;1891668;76;21106;-45
2022/01/09 05:03:04;;;;;;;31.68;13.45;;;5.30;90.00;;;;;;1891514;76;21097;-44
2022/01/09 05:05:34;;;;;;;56.05;14.87;;;5.30;90.10;;;;;;1891571;76;21055;-44
2022/01/09 05:08:03;;;;;;;38.53;14.50;;;5.30;90.10;;;;;;1891641;76;21094;-45
2022/01/09 05:10:33;;;;;;;52.73;15.00;;;5.30;90.10;;;;;;1891688;76;21091;-45
2022/01/09 05:13:02;;;;;;;67.32;14.43;;;5.20;89.90;;;;;;1891562;75;21036;-45
2022/01/09 05:15:31;;;;;;;64.17;14.60;;;5.10;90.00;;;;;;1891655;76;21157;-45
2022/01/09 05:18:04;;;;;;;42.25;14.93;;;5.10;90.00;;;;;;1891621;76;21072;-45
2022/01/09 05:20:32;;;;;;;46.63;12.20;;;5.00;90.10;;;;;;1891723;75;21024;-45
2022/01/09 05:23:01;;;;;;;43.78;15.25;;;5.00;90.00;;;;;;1891627;76;21087;-44
2022/01/09 05:25:30;;;;;;;53.08;15.50;;;4.90;90.10;;;;;;1891440;75;21008;-44
2022/01/09 05:27:59;;;;;;;33.73;13.48;;;4.80;90.10;;;;;;1891462;76;21125;-46
2022/01/09 05:30:29;;;;;;;50.52;16.52;;;4.80;90.20;;;;;;1891530;76;21091;-45
2022/01/09 05:32:58;;;;;;;63.90;15.68;;;4.80;90.30;;;;;;1891680;76;21031;-45
2022/01/09 05:35:28;;;;;;;30.05;13.35;;;4.80;90.30;;;;;;1891547;76;21036;-46
2022/01/09 05:37:58;;;;;;;50.92;12.75;;;4.80;90.40;;;;;;1891453;76;21032;-45
2022/01/09 05:40:27;;;;;;;41.13;12.00;;;4.80;90.20;;;;;;1891470;76;21031;-45
2022/01/09 05:42:57;;;;;;;30.92;11.08;;;4.80;90.20;;;;;;1891549;76;21125;-45
2022/01/09 05:45:26;;;;;;;44.35;12.23;;;4.70;90.30;;;;;;1891533;75;21055;-45
2022/01/09 05:47:55;;;;;;;39.13;13.60;;;4.60;90.30;;;;;;1891440;76;21031;-45
2022/01/09 05:50:25;;;;;;;26.15;12.80;;;4.60;90.30;;;;;;1891550;76;21113;-46
2022/01/09 05:52:54;;;;;;;49.18;12.88;;;4.50;90.30;;;;;;1891620;75;21085;-45
2022/01/09 05:55:23;;;;;;;53.35;13.45;;;4.60;90.80;;;;;;1891487;76;21102;-45
2022/01/09 05:57:53;;;;;;;56.00;15.75;;;4.60;90.60;;;;;;1891470;76;21036;-45
2022/01/09 06:00:22;;;;;;;33.48;12.65;;;4.70;90.40;;;;;;1891429;76;21170;-45
2022/01/09 06:02:51;;;;;;;40.58;13.70;;;4.70;90.40;;;;;;1891340;75;21348;-45
2022/01/09 06:05:23;;;;;;;39.15;12.98;;;4.70;90.30;;;;;;1891436;75;21094;-44
2022/01/09 06:07:52;;;;;;;54.58;13.70;;;4.80;90.40;;;;;;1891562;76;21587;-45
2022/01/09 06:10:21;;;;;;;48.73;13.15;;;4.90;90.60;;;;;;1891440;76;21161;-46
2022/01/09 06:12:50;;;;;;;46.65;13.18;;;5.00;90.40;;;;;;1891618;75;21028;-45
2022/01/09 06:15:19;;;;;;;89.10;13.25;;;5.00;90.10;;;;;;1891454;76;21455;-46
2022/01/09 06:17:49;;;;;;;26.87;12.50;;;4.90;90.00;;;;;;1891503;75;21008;-45
2022/01/09 06:20:18;;;;;;;42.62;12.65;;;4.90;90.00;;;;;;1891591;76;21036;-45
2022/01/09 06:22:47;;;;;;;22.67;10.03;;;4.80;90.00;;;;;;1891405;76;21192;-45
2022/01/09 06:25:17;;;;;;;70.92;19.37;;;4.80;90.10;;;;;;1891476;76;21093;-45
2022/01/09 06:27:46;;;;;;;52.80;15.90;;;4.70;90.10;;;;;;1891544;76;21032;-46
2022/01/09 06:30:16;;;;;;;64.35;13.93;;;4.70;90.20;;;;;;1891532;76;21036;-46
2022/01/09 06:32:45;;;;;;;35.83;10.93;;;4.60;90.20;;;;;;1891516;76;21035;-44
2022/01/09 06:35:14;;;;;;;27.95;12.82;;;4.60;90.30;;;;;;1891528;76;21027;-46
2022/01/09 06:37:43;;;;;;;52.40;12.00;;;4.60;90.20;;;;;;1891440;76;21032;-45
2022/01/09 06:40:13;;;;;;;24.37;9.83;;;4.60;90.20;;;;;;1891537;76;21004;-45
2022/01/09 06:42:42;;;;;;;27.98;9.95;;;4.60;90.30;;;;;;1891437;76;21012;-45
2022/01/09 06:45:12;;;;;;;35.00;11.00;;;4.70;90.20;;;;;;1891524;75;21133;-44
2022/01/09 06:47:42;;;;;;;21.70;10.50;;;4.60;90.20;;;;;;1891611;76;21164;-45
2022/01/09 06:50:12;;;;;;;27.40;10.90;;;4.60;90.30;;;;;;1891386;76;21048;-45
2022/01/09 06:52:41;;;;;;;47.73;15.90;;;4.60;90.20;;;;;;1891583;76;21036;-45
2022/01/09 06:55:11;;;;;;;37.05;15.18;;;4.60;90.30;;;;;;1891417;76;21032;-45
2022/01/09 06:57:41;;;;;;;26.85;13.50;;;4.70;90.40;;;;;;1891481;76;21040;-45
2022/01/09 07:00:11;;;;;;;29.57;12.98;;;4.70;90.10;;;;;;1891395;74;21024;-45
2022/01/09 07:02:41;;;;;;;29.27;11.15;;;4.70;90.10;;;;;;1891438;76;21036;-44
2022/01/09 07:05:11;;;;;;;22.42;7.90;;;4.60;90.00;;;;;;1891547;76;21031;-45
2022/01/09 07:07:41;;;;;;;35.50;11.25;;;4.60;90.10;;;;;;1891643;76;21039;-46
2022/01/09 07:10:11;;;;;;;33.90;10.68;;;4.60;90.20;;;;;;1891460;76;21008;-45
2022/01/09 07:12:41;;;;;;;24.57;9.80;;;4.50;90.20;;;;;;1891604;76;21110;-45
2022/01/09 07:15:11;;;;;;;20.85;10.15;;;4.60;90.50;;;;;;1891540;75;21074;-44
2022/01/09 07:17:41;;;;;;;15.30;8.90;;;4.60;90.40;;;;;;1891494;76;21094;-47
2022/01/09 07:20:11;;;;;;;39.20;9.48;;;4.70;90.30;;;;;;1891376;76;21109;-45
2022/01/09 07:22:40;;;;;;;20.48;9.83;;;4.70;90.40;;;;;;1891459;75;21004;-45
2022/01/09 07:25:10;;;;;;;20.88;10.75;;;4.80;90.20;;;;;;1891436;76;21106;-45
2022/01/09 07:27:40;;;;;;;20.80;9.75;;;4.80;90.10;;;;;;1891540;76;21031;-44
2022/01/09 07:30:10;;;;;;;26.45;11.90;;;4.80;90.20;;;;;;1891436;76;21036;-46
2022/01/09 07:32:40;;;;;;;18.00;9.50;;;4.80;90.10;;;;;;1891373;76;21040;-45
2022/01/09 07:35:10;;;;;;;33.13;17.05;;;4.90;90.10;;;;;;1891391;76;21052;-45
2022/01/09 07:37:39;;;;;;;27.07;11.50;;;4.80;90.00;;;;;;1891503;76;21093;-45
2022/01/09 07:40:09;;;;;;;21.87;13.28;;;4.90;90.10;;;;;;1891451;76;21098;-45
2022/01/09 07:42:39;;;;;;;28.67;11.55;;;4.90;90.10;;;;;;1891442;76;21036;-45
2022/01/09 07:45:09;;;;;;;18.85;8.78;;;5.00;90.20;;;;;;1891275;76;21094;-46
2022/01/09 07:47:39;;;;;;;28.80;10.08;;;5.10;90.20;;;;;;1891494;74;21121;-45
2022/01/09 07:50:14;;;;;;;20.25;9.63;;;5.10;90.10;;;;;;1891341;76;21463;-44
2022/01/09 07:52:44;;;;;;;25.10;10.10;;;5.20;90.10;;;;;;1891351;76;21392;-45
2022/01/09 07:55:14;;;;;;;15.78;9.45;;;5.30;90.10;;;;;;1891413;76;21047;-46
2022/01/09 07:57:43;;;;;;;27.98;10.85;;;5.30;90.00;;;;;;1891334;76;21012;-45
2022/01/09 08:00:14;;;;;;;56.70;12.58;;;5.40;89.90;;;;;;1891456;75;21557;-44
2022/01/09 08:02:43;;;;;;;27.32;9.55;;;5.40;89.20;;;;;;1891568;75;21502;-44
2022/01/09 08:05:13;;;;;;;21.40;9.95;;;5.40;89.40;;;;;;1891324;76;21067;-45
2022/01/09 08:07:43;;;;;;;27.73;10.20;;;5.30;89.70;;;;;;1891403;76;21055;-44
2022/01/09 08:10:13;;;;;;;25.62;9.85;;;5.40;89.70;;;;;;1891398;75;21103;-45
2022/01/09 08:12:42;;;;;;;16.80;9.40;;;5.40;89.60;;;;;;1891644;76;21075;-45
2022/01/09 08:15:12;;;;;;;36.20;11.63;;;5.40;89.90;;;;;;1891562;74;21008;-44
2022/01/09 08:17:45;;;;;;;24.10;10.85;;;5.40;89.40;;;;;;1891442;76;21035;-45
2022/01/09 08:20:17;;;;;;;18.40;10.88;;;5.40;89.40;;;;;;1891590;75;21098;-46
2022/01/09 08:22:47;;;;;;;16.02;9.83;;;5.40;89.80;;;;;;1891419;76;21004;-45
2022/01/09 08:25:18;;;;;;;13.90;8.58;;;5.40;89.60;;;;;;1891519;76;21091;-44
2022/01/09 08:27:48;;;;;;;26.55;9.78;;;5.40;89.30;;;;;;1891442;76;21032;-45
2022/01/09 08:30:21;;;;;;;14.70;8.35;;;5.40;89.60;;;;;;1891426;76;21028;-45
2022/01/09 08:32:53;;;;;;;20.95;11.65;;;5.40;89.80;;;;;;1891710;76;21126;-45
2022/01/09 08:35:23;;;;;;;18.77;9.18;;;5.40;89.90;;;;;;1891473;76;21079;-44
2022/01/09 08:37:52;;;;;;;14.90;8.58;;;5.50;89.60;;;;;;1891405;76;21153;-45
2022/01/09 08:40:23;;;;;;;15.20;8.40;;;5.50;89.50;;;;;;1891649;76;21031;-45
2022/01/09 08:42:58;;;;;;;15.88;9.38;;;5.50;89.60;;;;;;1891490;76;21141;-45
2022/01/09 08:45:24;;;;;;;15.40;8.53;;;5.50;89.30;;;;;;1891085;75;21043;-45
2022/01/09 08:47:53;;;;;;;16.10;9.28;;;5.50;89.30;;;;;;1882433;75;21104;-44
2022/01/09 08:50:23;;;;;;;11.57;7.70;;;5.50;89.50;;;;;;1872896;75;21089;-45
2022/01/09 08:52:52;;;;;;;16.42;8.90;;;5.60;89.40;;;;;;1872855;75;21025;-46
2022/01/09 08:55:22;;;;;;;21.12;9.28;;;5.70;89.40;;;;;;1872737;76;21037;-45
2022/01/09 08:57:51;;;;;;;14.70;9.75;;;5.70;89.40;;;;;;1872730;75;21033;-45
2022/01/09 09:00:20;;;;;;;13.98;8.45;;;5.80;89.50;;;;;;1872765;75;21034;-46
2022/01/09 09:02:49;;;;;;;16.62;9.38;;;5.80;88.80;;;;;;1872776;76;21033;-46
2022/01/09 09:05:19;;;;;;;18.17;10.13;;;5.90;89.20;;;;;;1872653;76;21142;-45
2022/01/09 09:07:50;;;;;;;21.35;12.45;;;5.90;89.10;;;;;;1872900;76;21005;-45
2022/01/09 09:10:19;;;;;;;17.87;11.05;;;6.00;89.30;;;;;;1872668;75;21088;-45
2022/01/09 09:12:49;;;;;;;20.35;12.35;;;6.00;89.10;;;;;;1872765;76;21099;-46
2022/01/09 09:15:20;;;;;;;24.98;15.43;;;6.10;89.20;;;;;;1872781;76;21113;-45
2022/01/09 09:17:49;;;;;;;26.87;16.48;;;6.10;89.20;;;;;;1872818;75;21186;-45
2022/01/09 09:20:18;;;;;;;27.22;16.77;;;6.20;88.80;;;;;;1872689;75;21103;-46
2022/01/09 09:22:48;;;;;;;37.85;25.88;;;6.10;88.10;;;;;;1872649;75;21025;-45
2022/01/09 09:25:18;;;;;;;37.67;30.60;;;6.20;88.80;;;;;;1872716;75;21100;-45
2022/01/09 09:27:47;;;;;;;36.33;27.10;;;6.20;89.00;;;;;;1872693;75;21029;-45
2022/01/09 09:30:17;;;;;;;38.20;29.75;;;6.30;88.90;;;;;;1872827;76;21103;-45
2022/01/09 09:32:46;;;;;;;31.70;25.17;;;6.30;89.00;;;;;;1872746;75;21040;-45
2022/01/09 09:35:15;;;;;;;66.17;27.62;;;6.40;88.80;;;;;;1872715;76;21099;-45
2022/01/09 09:37:45;;;;;;;30.97;26.85;;;6.50;88.90;;;;;;1872781;75;21069;-45
2022/01/09 09:40:14;;;;;;;40.25;31.37;;;6.50;88.80;;;;;;1872708;76;21095;-45
2022/01/09 09:42:44;;;;;;;38.30;29.02;;;6.60;88.80;;;;;;1872800;77;21077;-46
2022/01/09 09:45:14;;;;;;;43.00;30.08;;;6.70;88.40;;;;;;1872756;77;21150;-45
2022/01/09 09:47:43;;;;;;;45.65;30.35;;;6.80;88.70;;;;;;1872799;75;21119;-45
2022/01/09 09:50:15;;;;;;;42.08;33.67;;;6.90;88.60;;;;;;1872715;75;21148;-45
2022/01/09 09:52:47;;;;;;;46.90;35.20;;;7.00;88.70;;;;;;1872758;75;21033;-45
2022/01/09 09:55:18;;;;;;;40.50;34.85;;;7.10;88.70;;;;;;1872797;75;21034;-44
2022/01/09 09:57:47;;;;;;;43.08;32.45;;;7.10;88.50;;;;;;1872756;75;21041;-45
2022/01/09 10:00:19;;;;;;;34.58;25.45;;;7.20;88.40;;;;;;1872713;75;21006;-44
2022/01/09 10:02:50;;;;;;;30.30;18.57;;;7.30;88.40;;;;;;1872692;75;21025;-44
2022/01/09 10:05:22;;;;;;;29.10;16.02;;;7.40;88.20;;;;;;1872654;76;21088;-45
2022/01/09 10:07:54;;;;;;;30.37;18.95;;;7.50;88.30;;;;;;1872285;76;21053;-45
2022/01/09 10:10:26;;;;;;;31.00;16.55;;;7.60;88.00;;;;;;1871166;76;21101;-45
2022/01/09 10:12:57;;;;;;;23.70;13.90;;;7.70;88.00;;;;;;1871979;75;21531;-46
2022/01/09 10:15:27;;;;;;;20.90;14.18;;;7.80;87.50;;;;;;1870766;75;21167;-45
2022/01/09 10:17:56;;;;;;;22.93;15.00;;;8.00;87.80;;;;;;1872687;77;21041;-45
2022/01/09 10:20:26;;;;;;;23.15;15.68;;;8.10;87.80;;;;;;1872779;77;21108;-45
2022/01/09 10:22:56;;;;;;;28.75;15.95;;;8.30;87.30;;;;;;1872758;76;21128;-44
2022/01/09 10:25:36;;;;;;;13.90;8.98;;;8.40;87.50;;;;;;1872717;77;21037;-45
2022/01/09 10:28:12;;;;;;;21.05;12.43;;;8.60;86.40;;;;;;1872856;77;21083;-45
2022/01/09 10:30:43;;;;;;;17.65;12.80;;;8.80;86.20;;;;;;1872956;75;21037;-45
2022/01/09 10:33:15;;;;;;;19.25;12.53;;;9.00;86.80;;;;;;1872717;76;21096;-45
2022/01/09 10:35:49;;;;;;;21.87;12.73;;;9.10;86.20;;;;;;1872824;76;21181;-45
2022/01/09 10:38:27;;;;;;;17.20;8.33;;;9.30;86.30;;;;;;1872802;77;21185;-47
2022/01/09 10:40:59;;;;;;;14.63;8.15;;;9.40;84.70;;;;;;1872926;76;21042;-44
2022/01/09 10:43:33;;;;;;;12.98;8.00;;;9.50;85.50;;;;;;1872308;75;21115;-44
2022/01/09 10:46:03;;;;;;;12.88;6.78;;;9.70;85.00;;;;;;1873046;75;21054;-44
2022/01/09 10:48:37;;;;;;;19.30;7.25;;;9.80;85.00;;;;;;1872804;75;21139;-44
2022/01/09 10:51:08;;;;;;;18.35;9.43;;;9.90;84.70;;;;;;1872997;77;21025;-44
2022/01/09 10:53:39;;;;;;;15.40;7.33;;;10.00;84.10;;;;;;1872916;76;21460;-44
2022/01/09 10:56:19;;;;;;;13.48;6.42;;;10.00;83.60;;;;;;1872655;76;21516;-44
2022/01/09 10:58:56;;;;;;;11.85;7.80;;;10.10;83.70;;;;;;1872781;75;21092;-44
2022/01/09 11:01:31;;;;;;;53.23;14.78;;;10.20;83.30;;;;;;1872749;76;21068;-47
2022/01/09 11:04:04;;;;;;;13.32;7.75;;;10.30;82.80;;;;;;1873011;75;21029;-44
2022/01/09 11:06:35;;;;;;;31.60;8.03;;;10.30;82.50;;;;;;1872912;77;21044;-44
2022/01/09 11:09:06;;;;;;;14.60;6.97;;;10.40;82.40;;;;;;1872779;76;21072;-43
2022/01/09 11:11:40;;;;;;;9.90;6.97;;;10.50;81.30;;;;;;1872778;75;21069;-44
2022/01/09 11:14:14;;;;;;;14.70;7.62;;;10.60;79.90;;;;;;1872823;76;21456;-44
2022/01/09 11:16:47;;;;;;;12.45;7.53;;;10.70;80.30;;;;;;1872592;75;21018;-43
2022/01/09 11:19:21;;;;;;;9.58;5.80;;;10.70;79.70;;;;;;1872099;76;21034;-44
2022/01/09 11:22:03;;;;;;;11.15;6.40;;;10.80;78.70;;;;;;1872721;75;21033;-43
2022/01/09 11:24:44;;;;;;;9.68;6.22;;;10.90;79.00;;;;;;1872310;75;21053;-44
2022/01/09 11:27:38;;;;;;;9.10;5.45;;;11.00;77.60;;;;;;1853008;75;21115;-43
2022/01/09 11:30:11;;;;;;;7.17;5.35;;;11.10;77.10;;;;;;1872721;75;21049;-45
2022/01/09 11:32:55;;;;;;;9.95;5.70;;;11.20;75.30;;;;;;1872827;76;21100;-44
2022/01/09 11:35:57;;;;;;;8.65;5.17;;;11.20;73.50;;;;;;1872781;77;21206;-44
2022/01/09 11:38:29;;;;;;;13.75;6.53;;;11.40;73.40;;;;;;1872666;75;21142;-43
2022/01/09 11:41:19;;;;;;;26.70;8.85;;;11.50;74.20;;;;;;1871865;75;21037;-45
2022/01/09 11:43:57;;;;;;;15.50;10.08;;;11.50;73.50;;;;;;1872647;75;21488;-46
2022/01/09 11:46:31;;;;;;;12.93;7.42;;;11.60;71.30;;;;;;1871020;75;21488;-44
2022/01/09 11:49:04;;;;;;;7.30;6.20;;;11.70;73.20;;;;;;1872694;75;21503;-45
2022/01/09 11:51:35;;;;;;;11.63;8.03;;;11.70;72.30;;;;;;1872689;76;21061;-45
2022/01/09 11:54:19;;;;;;;11.35;5.72;;;11.70;72.20;;;;;;1872799;75;21070;-45
2022/01/09 11:56:56;;;;;;;10.48;5.70;;;11.80;69.70;;;;;;1872814;75;21001;-47
2022/01/09 11:59:34;;;;;;;15.68;8.45;;;11.80;70.50;;;;;;1872742;75;21041;-45
2022/01/09 12:02:18;;;;;;;10.98;6.35;;;11.80;71.20;;;;;;1872666;75;21095;-45
2022/01/09 12:04:50;;;;;;;12.13;5.70;;;11.90;70.30;;;;;;1872702;75;21091;-46
2022/01/09 12:07:39;;;;;;;18.32;6.25;;;11.80;71.10;;;;;;1872641;76;21034;-47
2022/01/09 12:10:19;;;;;;;6.03;3.87;;;11.80;70.40;;;;;;1872667;76;20998;-44
2022/01/09 12:12:50;;;;;;;10.78;5.60;;;11.80;69.60;;;;;;1866242;75;21128;-44
2022/01/09 12:15:37;;;;;;;9.13;6.15;;;11.90;69.80;;;;;;1872570;76;21038;-43
2022/01/09 12:18:09;;;;;;;10.55;6.55;;;11.90;70.10;;;;;;1872736;77;21115;-44
2022/01/09 12:20:42;;;;;;;12.05;7.72;;;11.90;70.10;;;;;;1867895;75;21002;-46
2022/01/09 12:23:21;;;;;;;13.58;9.23;;;11.90;71.00;;;;;;1872521;75;21002;-44
2022/01/09 12:25:52;;;;;;;10.20;5.80;;;11.90;70.90;;;;;;1872569;75;21065;-45
2022/01/09 12:28:26;;;;;;;10.48;6.35;;;11.80;70.90;;;;;;1872659;75;21073;-46
2022/01/09 12:31:01;;;;;;;12.80;5.53;;;11.80;70.70;;;;;;1872716;77;21033;-43
2022/01/09 12:33:34;;;;;;;9.45;5.72;;;11.80;70.00;;;;;;1872675;75;21095;-43
2022/01/09 12:36:06;;;;;;;9.88;6.25;;;11.80;70.50;;;;;;1872670;77;21131;-44
2022/01/09 12:38:37;;;;;;;8.15;5.55;;;11.80;70.90;;;;;;1872407;75;21120;-44
2022/01/09 12:41:09;;;;;;;28.35;7.50;;;11.70;70.90;;;;;;1872594;76;21515;-45
2022/01/09 12:43:39;;;;;;;9.98;5.65;;;11.70;71.20;;;;;;1872109;75;21073;-45
2022/01/09 12:46:21;;;;;;;13.20;6.47;;;11.70;70.50;;;;;;1872538;75;21500;-45
2022/01/09 12:48:58;;;;;;;10.45;5.70;;;11.70;71.10;;;;;;1872694;75;21049;-46
2022/01/09 12:51:32;;;;;;;12.68;6.45;;;11.70;70.00;;;;;;1872600;75;20986;-45
2022/01/09 12:54:06;;;;;;;8.13;6.17;;;11.70;71.20;;;;;;1872751;75;21030;-45
2022/01/09 12:56:38;;;;;;;8.90;5.73;;;11.70;70.80;;;;;;1872934;75;21139;-45